sensor_id;sensor_type;location;lat;lon;timestamp;P1;durP1;ratioP1;P2;durP2;ratioP2
27670;SDS011;15077;49.704;9.908;2023-03-17T00:01:47;5.38;;;3.10;;
27670;SDS011;15077;49.704;9.908;2023-03-17T00:04:18;4.15;;;3.13;;
27670;SDS011;15077;49.704;9.908;2023-03-17T00:06:44;4.72;;;3.30;;
27670;SDS011;15077;49.704;9.908;2023-03-17T00:09:12;4.43;;;2.88;;
27670;SDS011;15077;49.704;9.908;2023-03-17T00:11:41;5.43;;;2.58;;
27670;SDS011;15077;49.704;9.908;2023-03-17T00:14:08;3.78;;;3.20;;
27670;SDS011;15077;49.704;9.908;2023-03-17T00:16:38;3.95;;;3.28;;
27670;SDS011;15077;49.704;9.908;2023-03-17T00:19:18;5.53;;;3.78;;
27670;SDS011;15077;49.704;9.908;2023-03-17T00:21:55;4.40;;;2.95;;
27670;SDS011;15077;49.704;9.908;2023-03-17T00:24:22;5.32;;;3.60;;
27670;SDS011;15077;49.704;9.908;2023-03-17T00:26:48;5.72;;;3.63;;
27670;SDS011;15077;49.704;9.908;2023-03-17T00:29:14;4.20;;;2.67;;
27670;SDS011;15077;49.704;9.908;2023-03-17T00:31:40;3.97;;;2.92;;
27670;SDS011;15077;49.704;9.908;2023-03-17T00:34:14;4.45;;;3.10;;
27670;SDS011;15077;49.704;9.908;2023-03-17T00:36:44;5.10;;;3.25;;
27670;SDS011;15077;49.704;9.908;2023-03-17T00:39:13;5.75;;;3.67;;
27670;SDS011;15077;49.704;9.908;2023-03-17T00:41:40;4.88;;;3.47;;
27670;SDS011;15077;49.704;9.908;2023-03-17T00:44:07;3.85;;;3.08;;
27670;SDS011;15077;49.704;9.908;2023-03-17T00:46:33;4.38;;;3.20;;
27670;SDS011;15077;49.704;9.908;2023-03-17T00:49:12;3.30;;;2.60;;
27670;SDS011;15077;49.704;9.908;2023-03-17T00:51:43;4.75;;;3.22;;
27670;SDS011;15077;49.704;9.908;2023-03-17T00:54:10;3.50;;;2.95;;
27670;SDS011;15077;49.704;9.908;2023-03-17T00:56:38;4.75;;;3.35;;
27670;SDS011;15077;49.704;9.908;2023-03-17T00:59:25;4.57;;;2.88;;
27670;SDS011;15077;49.704;9.908;2023-03-17T01:01:54;4.57;;;2.47;;
27670;SDS011;15077;49.704;9.908;2023-03-17T01:04:21;4.25;;;3.20;;
27670;SDS011;15077;49.704;9.908;2023-03-17T01:06:48;3.95;;;2.65;;
27670;SDS011;15077;49.704;9.908;2023-03-17T01:09:16;3.13;;;2.65;;
27670;SDS011;15077;49.704;9.908;2023-03-17T01:11:48;4.47;;;3.30;;
27670;SDS011;15077;49.704;9.908;2023-03-17T01:14:14;3.90;;;2.65;;
27670;SDS011;15077;49.704;9.908;2023-03-17T01:16:40;4.60;;;2.85;;
27670;SDS011;15077;49.704;9.908;2023-03-17T01:19:07;4.15;;;2.70;;
27670;SDS011;15077;49.704;9.908;2023-03-17T01:21:36;4.03;;;3.28;;
27670;SDS011;15077;49.704;9.908;2023-03-17T01:24:02;5.22;;;3.40;;
27670;SDS011;15077;49.704;9.908;2023-03-17T01:26:28;4.57;;;2.80;;
27670;SDS011;15077;49.704;9.908;2023-03-17T01:28:54;4.32;;;2.92;;
27670;SDS011;15077;49.704;9.908;2023-03-17T01:31:20;4.05;;;2.70;;
27670;SDS011;15077;49.704;9.908;2023-03-17T01:33:49;2.88;;;2.17;;
27670;SDS011;15077;49.704;9.908;2023-03-17T01:36:17;4.50;;;3.42;;
27670;SDS011;15077;49.704;9.908;2023-03-17T01:38:43;3.47;;;2.28;;
27670;SDS011;15077;49.704;9.908;2023-03-17T01:41:15;4.57;;;2.45;;
27670;SDS011;15077;49.704;9.908;2023-03-17T01:43:43;3.72;;;2.55;;
27670;SDS011;15077;49.704;9.908;2023-03-17T01:52:03;3.83;;;2.08;;
27670;SDS011;15077;49.704;9.908;2023-03-17T01:54:40;3.72;;;2.17;;
27670;SDS011;15077;49.704;9.908;2023-03-17T01:57:32;3.50;;;2.25;;
27670;SDS011;15077;49.704;9.908;2023-03-17T02:00:08;4.97;;;2.38;;
27670;SDS011;15077;49.704;9.908;2023-03-17T02:02:45;4.07;;;2.47;;
27670;SDS011;15077;49.704;9.908;2023-03-17T02:05:15;3.28;;;2.10;;
27670;SDS011;15077;49.704;9.908;2023-03-17T02:07:45;3.20;;;2.47;;
27670;SDS011;15077;49.704;9.908;2023-03-17T02:10:12;3.97;;;2.63;;
27670;SDS011;15077;49.704;9.908;2023-03-17T02:12:43;3.70;;;2.03;;
27670;SDS011;15077;49.704;9.908;2023-03-17T02:15:15;3.60;;;2.55;;
27670;SDS011;15077;49.704;9.908;2023-03-17T02:17:41;2.83;;;2.13;;
27670;SDS011;15077;49.704;9.908;2023-03-17T02:20:12;3.80;;;2.50;;
27670;SDS011;15077;49.704;9.908;2023-03-17T02:22:51;3.53;;;2.13;;
27670;SDS011;15077;49.704;9.908;2023-03-17T02:25:19;2.97;;;2.22;;
27670;SDS011;15077;49.704;9.908;2023-03-17T02:27:52;3.70;;;2.45;;
27670;SDS011;15077;49.704;9.908;2023-03-17T02:30:26;3.25;;;2.33;;
27670;SDS011;15077;49.704;9.908;2023-03-17T02:32:53;3.28;;;2.17;;
27670;SDS011;15077;49.704;9.908;2023-03-17T02:35:19;3.50;;;2.08;;
27670;SDS011;15077;49.704;9.908;2023-03-17T02:37:45;3.97;;;2.55;;
27670;SDS011;15077;49.704;9.908;2023-03-17T02:40:12;3.28;;;2.47;;
27670;SDS011;15077;49.704;9.908;2023-03-17T02:42:39;4.63;;;2.80;;
27670;SDS011;15077;49.704;9.908;2023-03-17T02:45:06;4.50;;;2.88;;
27670;SDS011;15077;49.704;9.908;2023-03-17T02:47:35;3.50;;;2.42;;
27670;SDS011;15077;49.704;9.908;2023-03-17T02:50:01;2.70;;;2.15;;
27670;SDS011;15077;49.704;9.908;2023-03-17T02:52:32;3.10;;;2.22;;
27670;SDS011;15077;49.704;9.908;2023-03-17T02:54:58;4.43;;;3.00;;
27670;SDS011;15077;49.704;9.908;2023-03-17T02:57:24;5.88;;;3.42;;
27670;SDS011;15077;49.704;9.908;2023-03-17T02:59:50;4.00;;;2.47;;
27670;SDS011;15077;49.704;9.908;2023-03-17T03:02:17;4.60;;;3.08;;
27670;SDS011;15077;49.704;9.908;2023-03-17T03:04:43;4.25;;;2.58;;
27670;SDS011;15077;49.704;9.908;2023-03-17T03:07:10;4.40;;;2.78;;
27670;SDS011;15077;49.704;9.908;2023-03-17T03:09:36;4.47;;;2.80;;
27670;SDS011;15077;49.704;9.908;2023-03-17T03:12:02;2.90;;;2.22;;
27670;SDS011;15077;49.704;9.908;2023-03-17T03:14:30;4.10;;;2.85;;
27670;SDS011;15077;49.704;9.908;2023-03-17T03:16:56;3.90;;;2.70;;
27670;SDS011;15077;49.704;9.908;2023-03-17T03:19:22;3.58;;;2.30;;
27670;SDS011;15077;49.704;9.908;2023-03-17T03:21:48;4.95;;;2.97;;
27670;SDS011;15077;49.704;9.908;2023-03-17T03:24:13;4.45;;;2.60;;
27670;SDS011;15077;49.704;9.908;2023-03-17T03:26:39;4.15;;;2.78;;
27670;SDS011;15077;49.704;9.908;2023-03-17T03:29:05;3.97;;;2.60;;
27670;SDS011;15077;49.704;9.908;2023-03-17T03:31:31;3.97;;;2.38;;
27670;SDS011;15077;49.704;9.908;2023-03-17T03:33:57;3.67;;;2.45;;
27670;SDS011;15077;49.704;9.908;2023-03-17T03:36:23;2.75;;;1.83;;
27670;SDS011;15077;49.704;9.908;2023-03-17T03:38:51;3.85;;;2.45;;
27670;SDS011;15077;49.704;9.908;2023-03-17T03:41:18;3.83;;;2.53;;
27670;SDS011;15077;49.704;9.908;2023-03-17T03:43:43;5.68;;;3.10;;
27670;SDS011;15077;49.704;9.908;2023-03-17T03:46:09;4.30;;;2.63;;
27670;SDS011;15077;49.704;9.908;2023-03-17T03:48:37;4.05;;;2.60;;
27670;SDS011;15077;49.704;9.908;2023-03-17T03:51:03;4.07;;;2.85;;
27670;SDS011;15077;49.704;9.908;2023-03-17T03:53:29;5.30;;;2.97;;
27670;SDS011;15077;49.704;9.908;2023-03-17T03:55:55;4.28;;;3.03;;
27670;SDS011;15077;49.704;9.908;2023-03-17T03:58:21;5.10;;;3.47;;
27670;SDS011;15077;49.704;9.908;2023-03-17T04:00:48;6.88;;;3.80;;
27670;SDS011;15077;49.704;9.908;2023-03-17T04:03:14;4.45;;;3.17;;
27670;SDS011;15077;49.704;9.908;2023-03-17T04:05:41;4.65;;;3.10;;
27670;SDS011;15077;49.704;9.908;2023-03-17T04:08:07;5.25;;;3.33;;
27670;SDS011;15077;49.704;9.908;2023-03-17T04:10:33;5.50;;;3.05;;
27670;SDS011;15077;49.704;9.908;2023-03-17T04:12:59;3.45;;;2.67;;
27670;SDS011;15077;49.704;9.908;2023-03-17T04:15:25;6.28;;;3.78;;
27670;SDS011;15077;49.704;9.908;2023-03-17T04:17:51;7.82;;;5.15;;
27670;SDS011;15077;49.704;9.908;2023-03-17T04:20:19;7.28;;;4.30;;
27670;SDS011;15077;49.704;9.908;2023-03-17T04:22:45;6.18;;;3.95;;
27670;SDS011;15077;49.704;9.908;2023-03-17T04:25:11;4.78;;;3.05;;
27670;SDS011;15077;49.704;9.908;2023-03-17T04:27:39;3.92;;;3.00;;
27670;SDS011;15077;49.704;9.908;2023-03-17T04:30:07;4.15;;;3.20;;
27670;SDS011;15077;49.704;9.908;2023-03-17T04:32:38;4.55;;;3.33;;
27670;SDS011;15077;49.704;9.908;2023-03-17T04:35:04;4.65;;;3.05;;
27670;SDS011;15077;49.704;9.908;2023-03-17T04:37:37;4.60;;;3.30;;
27670;SDS011;15077;49.704;9.908;2023-03-17T04:40:03;3.90;;;2.63;;
27670;SDS011;15077;49.704;9.908;2023-03-17T04:42:34;3.50;;;2.58;;
27670;SDS011;15077;49.704;9.908;2023-03-17T04:45:02;4.43;;;2.83;;
27670;SDS011;15077;49.704;9.908;2023-03-17T04:47:29;4.50;;;3.00;;
27670;SDS011;15077;49.704;9.908;2023-03-17T04:49:55;5.38;;;2.95;;
27670;SDS011;15077;49.704;9.908;2023-03-17T04:52:20;3.97;;;2.65;;
27670;SDS011;15077;49.704;9.908;2023-03-17T04:54:47;4.22;;;2.67;;
27670;SDS011;15077;49.704;9.908;2023-03-17T04:57:12;5.45;;;2.92;;
27670;SDS011;15077;49.704;9.908;2023-03-17T04:59:38;5.47;;;3.35;;
27670;SDS011;15077;49.704;9.908;2023-03-17T05:02:04;3.65;;;2.70;;
27670;SDS011;15077;49.704;9.908;2023-03-17T05:04:32;5.22;;;2.85;;
27670;SDS011;15077;49.704;9.908;2023-03-17T05:06:59;7.25;;;4.35;;
27670;SDS011;15077;49.704;9.908;2023-03-17T05:09:25;5.00;;;3.40;;
27670;SDS011;15077;49.704;9.908;2023-03-17T05:11:52;5.15;;;3.53;;
27670;SDS011;15077;49.704;9.908;2023-03-17T05:14:18;5.75;;;3.60;;
27670;SDS011;15077;49.704;9.908;2023-03-17T05:16:48;5.00;;;3.20;;
27670;SDS011;15077;49.704;9.908;2023-03-17T05:19:15;5.50;;;3.33;;
27670;SDS011;15077;49.704;9.908;2023-03-17T05:21:40;6.55;;;3.60;;
27670;SDS011;15077;49.704;9.908;2023-03-17T05:24:06;7.50;;;4.28;;
27670;SDS011;15077;49.704;9.908;2023-03-17T05:26:33;7.85;;;4.90;;
27670;SDS011;15077;49.704;9.908;2023-03-17T05:28:59;7.85;;;4.13;;
27670;SDS011;15077;49.704;9.908;2023-03-17T05:31:25;7.20;;;4.40;;
27670;SDS011;15077;49.704;9.908;2023-03-17T05:33:51;5.97;;;3.78;;
27670;SDS011;15077;49.704;9.908;2023-03-17T05:36:17;7.25;;;4.00;;
27670;SDS011;15077;49.704;9.908;2023-03-17T05:38:43;7.45;;;4.05;;
27670;SDS011;15077;49.704;9.908;2023-03-17T05:41:09;5.78;;;3.65;;
27670;SDS011;15077;49.704;9.908;2023-03-17T05:43:36;6.88;;;4.45;;
27670;SDS011;15077;49.704;9.908;2023-03-17T05:46:02;8.80;;;4.22;;
27670;SDS011;15077;49.704;9.908;2023-03-17T05:48:28;6.13;;;3.78;;
27670;SDS011;15077;49.704;9.908;2023-03-17T05:50:54;6.25;;;4.18;;
27670;SDS011;15077;49.704;9.908;2023-03-17T05:53:20;5.88;;;3.92;;
27670;SDS011;15077;49.704;9.908;2023-03-17T05:55:46;7.25;;;3.88;;
27670;SDS011;15077;49.704;9.908;2023-03-17T05:58:12;4.95;;;3.33;;
27670;SDS011;15077;49.704;9.908;2023-03-17T06:00:39;6.65;;;3.70;;
27670;SDS011;15077;49.704;9.908;2023-03-17T06:03:06;5.82;;;3.00;;
27670;SDS011;15077;49.704;9.908;2023-03-17T06:05:33;5.28;;;3.85;;
27670;SDS011;15077;49.704;9.908;2023-03-17T06:08:00;4.90;;;3.33;;
27670;SDS011;15077;49.704;9.908;2023-03-17T06:10:26;7.80;;;3.70;;
27670;SDS011;15077;49.704;9.908;2023-03-17T06:12:52;4.72;;;3.00;;
27670;SDS011;15077;49.704;9.908;2023-03-17T06:15:18;4.93;;;3.22;;
27670;SDS011;15077;49.704;9.908;2023-03-17T06:17:44;6.13;;;3.75;;
27670;SDS011;15077;49.704;9.908;2023-03-17T06:20:10;4.82;;;2.97;;
27670;SDS011;15077;49.704;9.908;2023-03-17T06:22:37;4.93;;;3.15;;
27670;SDS011;15077;49.704;9.908;2023-03-17T06:25:03;4.28;;;2.92;;
27670;SDS011;15077;49.704;9.908;2023-03-17T06:27:29;4.78;;;3.63;;
27670;SDS011;15077;49.704;9.908;2023-03-17T06:29:56;6.22;;;4.43;;
27670;SDS011;15077;49.704;9.908;2023-03-17T06:32:23;5.88;;;3.90;;
27670;SDS011;15077;49.704;9.908;2023-03-17T06:34:49;7.03;;;3.80;;
27670;SDS011;15077;49.704;9.908;2023-03-17T06:37:15;4.30;;;3.17;;
27670;SDS011;15077;49.704;9.908;2023-03-17T06:39:41;5.47;;;2.97;;
27670;SDS011;15077;49.704;9.908;2023-03-17T06:42:08;5.53;;;3.25;;
27670;SDS011;15077;49.704;9.908;2023-03-17T06:44:34;5.05;;;2.88;;
27670;SDS011;15077;49.704;9.908;2023-03-17T06:47:00;4.10;;;2.45;;
27670;SDS011;15077;49.704;9.908;2023-03-17T06:49:26;5.20;;;3.03;;
27670;SDS011;15077;49.704;9.908;2023-03-17T06:51:52;4.65;;;3.17;;
27670;SDS011;15077;49.704;9.908;2023-03-17T06:54:18;4.38;;;2.55;;
27670;SDS011;15077;49.704;9.908;2023-03-17T06:56:45;3.47;;;2.17;;
27670;SDS011;15077;49.704;9.908;2023-03-17T06:59:11;2.42;;;2.13;;
27670;SDS011;15077;49.704;9.908;2023-03-17T07:01:37;7.07;;;3.05;;
27670;SDS011;15077;49.704;9.908;2023-03-17T07:04:03;4.72;;;3.10;;
27670;SDS011;15077;49.704;9.908;2023-03-17T07:06:29;5.97;;;3.72;;
27670;SDS011;15077;49.704;9.908;2023-03-17T07:08:55;3.47;;;2.20;;
27670;SDS011;15077;49.704;9.908;2023-03-17T07:11:21;6.93;;;4.05;;
27670;SDS011;15077;49.704;9.908;2023-03-17T07:13:47;6.00;;;4.55;;
27670;SDS011;15077;49.704;9.908;2023-03-17T07:16:14;4.80;;;3.50;;
27670;SDS011;15077;49.704;9.908;2023-03-17T07:18:43;5.20;;;3.22;;
27670;SDS011;15077;49.704;9.908;2023-03-17T07:21:10;3.97;;;3.28;;
27670;SDS011;15077;49.704;9.908;2023-03-17T07:23:36;5.60;;;3.22;;
27670;SDS011;15077;49.704;9.908;2023-03-17T07:26:02;7.13;;;4.53;;
27670;SDS011;15077;49.704;9.908;2023-03-17T07:28:28;6.95;;;4.82;;
27670;SDS011;15077;49.704;9.908;2023-03-17T07:30:55;7.05;;;4.82;;
27670;SDS011;15077;49.704;9.908;2023-03-17T07:33:22;5.43;;;3.60;;
27670;SDS011;15077;49.704;9.908;2023-03-17T07:35:49;6.15;;;4.35;;
27670;SDS011;15077;49.704;9.908;2023-03-17T07:38:16;8.27;;;4.72;;
27670;SDS011;15077;49.704;9.908;2023-03-17T07:40:48;7.70;;;4.63;;
27670;SDS011;15077;49.704;9.908;2023-03-17T07:43:14;7.32;;;4.70;;
27670;SDS011;15077;49.704;9.908;2023-03-17T07:45:41;9.02;;;4.97;;
27670;SDS011;15077;49.704;9.908;2023-03-17T07:48:09;7.82;;;4.50;;
27670;SDS011;15077;49.704;9.908;2023-03-17T07:50:35;6.30;;;4.35;;
27670;SDS011;15077;49.704;9.908;2023-03-17T07:53:01;6.38;;;4.38;;
27670;SDS011;15077;49.704;9.908;2023-03-17T07:55:29;7.40;;;4.63;;
27670;SDS011;15077;49.704;9.908;2023-03-17T07:57:56;6.43;;;4.35;;
27670;SDS011;15077;49.704;9.908;2023-03-17T08:00:22;7.25;;;4.68;;
27670;SDS011;15077;49.704;9.908;2023-03-17T08:02:48;6.30;;;4.60;;
27670;SDS011;15077;49.704;9.908;2023-03-17T08:05:16;5.05;;;3.53;;
27670;SDS011;15077;49.704;9.908;2023-03-17T08:07:42;5.28;;;3.83;;
27670;SDS011;15077;49.704;9.908;2023-03-17T08:10:09;7.88;;;4.40;;
27670;SDS011;15077;49.704;9.908;2023-03-17T08:12:37;5.20;;;3.75;;
27670;SDS011;15077;49.704;9.908;2023-03-17T08:15:05;4.32;;;3.08;;
27670;SDS011;15077;49.704;9.908;2023-03-17T08:17:31;5.85;;;4.10;;
27670;SDS011;15077;49.704;9.908;2023-03-17T08:19:59;6.13;;;4.35;;
27670;SDS011;15077;49.704;9.908;2023-03-17T08:22:24;6.57;;;4.47;;
27670;SDS011;15077;49.704;9.908;2023-03-17T08:24:51;4.40;;;3.88;;
27670;SDS011;15077;49.704;9.908;2023-03-17T08:27:17;8.30;;;5.20;;
27670;SDS011;15077;49.704;9.908;2023-03-17T08:29:45;5.43;;;4.05;;
27670;SDS011;15077;49.704;9.908;2023-03-17T08:32:11;5.45;;;4.20;;
27670;SDS011;15077;49.704;9.908;2023-03-17T08:34:37;5.68;;;4.38;;
27670;SDS011;15077;49.704;9.908;2023-03-17T08:37:03;6.50;;;5.00;;
27670;SDS011;15077;49.704;9.908;2023-03-17T08:39:30;7.75;;;4.72;;
27670;SDS011;15077;49.704;9.908;2023-03-17T08:41:56;7.28;;;4.93;;
27670;SDS011;15077;49.704;9.908;2023-03-17T08:44:22;6.38;;;4.53;;
27670;SDS011;15077;49.704;9.908;2023-03-17T08:46:49;9.23;;;4.60;;
27670;SDS011;15077;49.704;9.908;2023-03-17T08:49:16;5.18;;;4.20;;
27670;SDS011;15077;49.704;9.908;2023-03-17T08:51:42;13.35;;;5.47;;
27670;SDS011;15077;49.704;9.908;2023-03-17T08:54:09;7.15;;;5.20;;
27670;SDS011;15077;49.704;9.908;2023-03-17T08:56:37;7.13;;;4.30;;
27670;SDS011;15077;49.704;9.908;2023-03-17T08:59:05;4.88;;;4.20;;
27670;SDS011;15077;49.704;9.908;2023-03-17T09:01:32;5.25;;;3.70;;
27670;SDS011;15077;49.704;9.908;2023-03-17T09:03:59;5.03;;;4.15;;
27670;SDS011;15077;49.704;9.908;2023-03-17T09:06:25;9.13;;;5.28;;
27670;SDS011;15077;49.704;9.908;2023-03-17T09:08:53;5.07;;;4.05;;
27670;SDS011;15077;49.704;9.908;2023-03-17T09:11:20;5.35;;;4.40;;
27670;SDS011;15077;49.704;9.908;2023-03-17T09:13:50;5.65;;;3.80;;
27670;SDS011;15077;49.704;9.908;2023-03-17T09:16:16;6.65;;;4.10;;
27670;SDS011;15077;49.704;9.908;2023-03-17T09:18:43;6.15;;;3.90;;
27670;SDS011;15077;49.704;9.908;2023-03-17T09:21:11;4.05;;;2.78;;
27670;SDS011;15077;49.704;9.908;2023-03-17T09:23:38;6.78;;;4.05;;
27670;SDS011;15077;49.704;9.908;2023-03-17T09:26:05;6.28;;;4.40;;
27670;SDS011;15077;49.704;9.908;2023-03-17T09:28:31;7.40;;;4.28;;
27670;SDS011;15077;49.704;9.908;2023-03-17T09:30:58;5.82;;;4.25;;
27670;SDS011;15077;49.704;9.908;2023-03-17T09:33:26;5.70;;;4.53;;
27670;SDS011;15077;49.704;9.908;2023-03-17T09:35:53;6.57;;;4.45;;
27670;SDS011;15077;49.704;9.908;2023-03-17T09:38:21;5.05;;;3.17;;
27670;SDS011;15077;49.704;9.908;2023-03-17T09:40:52;6.30;;;4.20;;
27670;SDS011;15077;49.704;9.908;2023-03-17T09:43:31;5.30;;;3.83;;
27670;SDS011;15077;49.704;9.908;2023-03-17T09:49:18;6.35;;;4.68;;
27670;SDS011;15077;49.704;9.908;2023-03-17T09:51:50;7.50;;;4.43;;
27670;SDS011;15077;49.704;9.908;2023-03-17T10:00:11;4.63;;;3.78;;
27670;SDS011;15077;49.704;9.908;2023-03-17T10:02:43;6.18;;;4.35;;
27670;SDS011;15077;49.704;9.908;2023-03-17T10:05:25;6.82;;;4.50;;
27670;SDS011;15077;49.704;9.908;2023-03-17T10:10:48;5.88;;;3.78;;
27670;SDS011;15077;49.704;9.908;2023-03-17T10:22:18;4.93;;;3.45;;
27670;SDS011;15077;49.704;9.908;2023-03-17T10:24:56;5.05;;;3.63;;
27670;SDS011;15077;49.704;9.908;2023-03-17T10:27:36;6.90;;;3.70;;
27670;SDS011;15077;49.704;9.908;2023-03-17T10:30:04;4.85;;;4.22;;
27670;SDS011;15077;49.704;9.908;2023-03-17T10:32:40;5.78;;;3.97;;
27670;SDS011;15077;49.704;9.908;2023-03-17T10:35:07;4.70;;;3.53;;
27670;SDS011;15077;49.704;9.908;2023-03-17T10:37:35;5.28;;;3.45;;
27670;SDS011;15077;49.704;9.908;2023-03-17T10:40:03;5.18;;;3.45;;
27670;SDS011;15077;49.704;9.908;2023-03-17T10:42:34;4.57;;;4.18;;
27670;SDS011;15077;49.704;9.908;2023-03-17T10:45:24;5.43;;;4.13;;
27670;SDS011;15077;49.704;9.908;2023-03-17T10:47:55;7.05;;;3.83;;
27670;SDS011;15077;49.704;9.908;2023-03-17T10:50:24;3.85;;;2.83;;
27670;SDS011;15077;49.704;9.908;2023-03-17T10:55:39;4.87;;;3.53;;
27670;SDS011;15077;49.704;9.908;2023-03-17T10:58:16;7.63;;;3.67;;
27670;SDS011;15077;49.704;9.908;2023-03-17T11:00:57;5.07;;;3.45;;
27670;SDS011;15077;49.704;9.908;2023-03-17T11:03:34;4.30;;;3.60;;
27670;SDS011;15077;49.704;9.908;2023-03-17T11:06:05;5.55;;;3.53;;
27670;SDS011;15077;49.704;9.908;2023-03-17T11:08:34;5.38;;;3.80;;
27670;SDS011;15077;49.704;9.908;2023-03-17T11:11:20;3.88;;;3.10;;
27670;SDS011;15077;49.704;9.908;2023-03-17T11:14:04;4.70;;;2.90;;
27670;SDS011;15077;49.704;9.908;2023-03-17T11:16:37;5.25;;;3.78;;
27670;SDS011;15077;49.704;9.908;2023-03-17T11:19:12;4.68;;;3.47;;
27670;SDS011;15077;49.704;9.908;2023-03-17T11:24:35;5.05;;;3.17;;
27670;SDS011;15077;49.704;9.908;2023-03-17T11:32:50;4.55;;;3.22;;
27670;SDS011;15077;49.704;9.908;2023-03-17T11:35:37;3.88;;;3.22;;
27670;SDS011;15077;49.704;9.908;2023-03-17T11:38:20;4.55;;;2.90;;
27670;SDS011;15077;49.704;9.908;2023-03-17T11:46:46;4.40;;;3.10;;
27670;SDS011;15077;49.704;9.908;2023-03-17T11:58:11;4.82;;;3.33;;
27670;SDS011;15077;49.704;9.908;2023-03-17T12:00:52;4.20;;;3.10;;
27670;SDS011;15077;49.704;9.908;2023-03-17T12:05:59;3.55;;;2.60;;
27670;SDS011;15077;49.704;9.908;2023-03-17T12:11:15;4.35;;;3.15;;
27670;SDS011;15077;49.704;9.908;2023-03-17T12:13:50;4.10;;;2.92;;
27670;SDS011;15077;49.704;9.908;2023-03-17T12:19:21;3.60;;;2.72;;
27670;SDS011;15077;49.704;9.908;2023-03-17T12:25:29;3.50;;;2.70;;
27670;SDS011;15077;49.704;9.908;2023-03-17T12:33:29;4.07;;;1.90;;
27670;SDS011;15077;49.704;9.908;2023-03-17T12:36:08;1.27;;;1.10;;
27670;SDS011;15077;49.704;9.908;2023-03-17T12:41:21;3.58;;;2.50;;
27670;SDS011;15077;49.704;9.908;2023-03-17T12:49:54;3.45;;;2.35;;
27670;SDS011;15077;49.704;9.908;2023-03-17T12:55:51;2.72;;;2.05;;
27670;SDS011;15077;49.704;9.908;2023-03-17T12:58:21;2.13;;;1.77;;
27670;SDS011;15077;49.704;9.908;2023-03-17T13:04:17;2.22;;;1.60;;
27670;SDS011;15077;49.704;9.908;2023-03-17T13:06:53;3.58;;;2.55;;
27670;SDS011;15077;49.704;9.908;2023-03-17T13:17:50;5.38;;;2.90;;
27670;SDS011;15077;49.704;9.908;2023-03-17T13:20:39;4.35;;;2.75;;
27670;SDS011;15077;49.704;9.908;2023-03-17T13:25:34;4.05;;;1.80;;
27670;SDS011;15077;49.704;9.908;2023-03-17T13:28:39;2.72;;;2.13;;
27670;SDS011;15077;49.704;9.908;2023-03-17T13:31:28;3.33;;;2.20;;
27670;SDS011;15077;49.704;9.908;2023-03-17T13:37:00;3.83;;;2.35;;
27670;SDS011;15077;49.704;9.908;2023-03-17T13:40:20;3.58;;;2.20;;
27670;SDS011;15077;49.704;9.908;2023-03-17T13:43:31;2.92;;;2.05;;
27670;SDS011;15077;49.704;9.908;2023-03-17T13:46:19;2.97;;;2.03;;
27670;SDS011;15077;49.704;9.908;2023-03-17T13:48:53;2.85;;;2.08;;
27670;SDS011;15077;49.704;9.908;2023-03-17T13:51:24;2.95;;;2.00;;
27670;SDS011;15077;49.704;9.908;2023-03-17T13:54:08;2.92;;;1.90;;
27670;SDS011;15077;49.704;9.908;2023-03-17T13:56:51;6.88;;;2.28;;
27670;SDS011;15077;49.704;9.908;2023-03-17T14:02:19;4.00;;;1.90;;
27670;SDS011;15077;49.704;9.908;2023-03-17T14:04:57;3.80;;;2.38;;
27670;SDS011;15077;49.704;9.908;2023-03-17T14:10:11;1.88;;;1.17;;
27670;SDS011;15077;49.704;9.908;2023-03-17T14:15:49;2.45;;;1.73;;
27670;SDS011;15077;49.704;9.908;2023-03-17T14:21:03;3.55;;;2.42;;
27670;SDS011;15077;49.704;9.908;2023-03-17T14:23:34;3.78;;;2.65;;
27670;SDS011;15077;49.704;9.908;2023-03-17T14:26:00;3.60;;;2.22;;
27670;SDS011;15077;49.704;9.908;2023-03-17T14:28:31;2.97;;;2.22;;
27670;SDS011;15077;49.704;9.908;2023-03-17T14:30:59;2.65;;;1.92;;
27670;SDS011;15077;49.704;9.908;2023-03-17T14:33:40;2.95;;;1.70;;
27670;SDS011;15077;49.704;9.908;2023-03-17T14:36:07;3.72;;;1.73;;
27670;SDS011;15077;49.704;9.908;2023-03-17T14:38:37;2.35;;;1.60;;
27670;SDS011;15077;49.704;9.908;2023-03-17T14:43:39;2.65;;;2.05;;
27670;SDS011;15077;49.704;9.908;2023-03-17T14:46:11;3.03;;;1.80;;
27670;SDS011;15077;49.704;9.908;2023-03-17T14:48:48;2.17;;;1.40;;
27670;SDS011;15077;49.704;9.908;2023-03-17T14:51:23;1.83;;;1.40;;
27670;SDS011;15077;49.704;9.908;2023-03-17T14:54:14;2.13;;;1.48;;
27670;SDS011;15077;49.704;9.908;2023-03-17T14:56:47;4.72;;;1.70;;
27670;SDS011;15077;49.704;9.908;2023-03-17T15:02:21;1.67;;;1.05;;
27670;SDS011;15077;49.704;9.908;2023-03-17T15:04:56;1.58;;;0.73;;
27670;SDS011;15077;49.704;9.908;2023-03-17T15:10:11;1.58;;;0.90;;
27670;SDS011;15077;49.704;9.908;2023-03-17T15:12:44;2.05;;;1.02;;
27670;SDS011;15077;49.704;9.908;2023-03-17T15:15:22;1.63;;;0.88;;
27670;SDS011;15077;49.704;9.908;2023-03-17T15:17:57;1.50;;;1.00;;
27670;SDS011;15077;49.704;9.908;2023-03-17T15:20:28;1.80;;;0.98;;
27670;SDS011;15077;49.704;9.908;2023-03-17T15:23:02;1.83;;;0.90;;
27670;SDS011;15077;49.704;9.908;2023-03-17T15:25:53;1.92;;;1.20;;
27670;SDS011;15077;49.704;9.908;2023-03-17T15:28:21;1.15;;;1.00;;
27670;SDS011;15077;49.704;9.908;2023-03-17T15:30:51;1.73;;;0.77;;
27670;SDS011;15077;49.704;9.908;2023-03-17T15:35:54;1.40;;;0.95;;
27670;SDS011;15077;49.704;9.908;2023-03-17T15:38:24;2.70;;;0.75;;
27670;SDS011;15077;49.704;9.908;2023-03-17T15:40:50;1.55;;;0.93;;
27670;SDS011;15077;49.704;9.908;2023-03-17T15:43:17;2.05;;;1.08;;
27670;SDS011;15077;49.704;9.908;2023-03-17T15:45:54;1.05;;;0.80;;
27670;SDS011;15077;49.704;9.908;2023-03-17T15:48:26;1.00;;;0.70;;
27670;SDS011;15077;49.704;9.908;2023-03-17T15:50:55;1.60;;;0.88;;
27670;SDS011;15077;49.704;9.908;2023-03-17T15:53:24;1.17;;;0.68;;
27670;SDS011;15077;49.704;9.908;2023-03-17T15:55:51;1.40;;;0.90;;
27670;SDS011;15077;49.704;9.908;2023-03-17T15:58:17;1.30;;;0.80;;
27670;SDS011;15077;49.704;9.908;2023-03-17T16:00:43;1.17;;;0.82;;
27670;SDS011;15077;49.704;9.908;2023-03-17T16:03:17;1.10;;;0.80;;
27670;SDS011;15077;49.704;9.908;2023-03-17T16:05:51;1.30;;;0.68;;
27670;SDS011;15077;49.704;9.908;2023-03-17T16:08:17;0.95;;;0.60;;
27670;SDS011;15077;49.704;9.908;2023-03-17T16:10:43;1.75;;;1.08;;
27670;SDS011;15077;49.704;9.908;2023-03-17T16:13:09;1.90;;;0.70;;
27670;SDS011;15077;49.704;9.908;2023-03-17T16:15:36;1.88;;;0.98;;
27670;SDS011;15077;49.704;9.908;2023-03-17T16:18:06;1.58;;;1.00;;
27670;SDS011;15077;49.704;9.908;2023-03-17T16:20:43;0.90;;;0.60;;
27670;SDS011;15077;49.704;9.908;2023-03-17T16:25:40;1.80;;;0.80;;
27670;SDS011;15077;49.704;9.908;2023-03-17T16:28:20;1.08;;;0.80;;
27670;SDS011;15077;49.704;9.908;2023-03-17T16:30:48;1.88;;;0.88;;
27670;SDS011;15077;49.704;9.908;2023-03-17T16:33:26;1.10;;;0.85;;
27670;SDS011;15077;49.704;9.908;2023-03-17T16:35:57;2.15;;;0.73;;
27670;SDS011;15077;49.704;9.908;2023-03-17T16:38:26;1.40;;;1.00;;
27670;SDS011;15077;49.704;9.908;2023-03-17T16:41:30;3.10;;;1.10;;
27670;SDS011;15077;49.704;9.908;2023-03-17T16:43:52;1.75;;;0.77;;
27670;SDS011;15077;49.704;9.908;2023-03-17T16:46:30;1.77;;;0.60;;
27670;SDS011;15077;49.704;9.908;2023-03-17T16:48:58;1.80;;;0.90;;
27670;SDS011;15077;49.704;9.908;2023-03-17T16:51:25;1.73;;;1.02;;
27670;SDS011;15077;49.704;9.908;2023-03-17T16:53:51;1.40;;;0.80;;
27670;SDS011;15077;49.704;9.908;2023-03-17T16:56:18;1.20;;;0.80;;
27670;SDS011;15077;49.704;9.908;2023-03-17T16:58:47;2.08;;;0.90;;
27670;SDS011;15077;49.704;9.908;2023-03-17T17:01:20;2.20;;;1.20;;
27670;SDS011;15077;49.704;9.908;2023-03-17T17:03:52;2.50;;;1.10;;
27670;SDS011;15077;49.704;9.908;2023-03-17T17:06:18;3.63;;;1.50;;
27670;SDS011;15077;49.704;9.908;2023-03-17T17:08:46;2.03;;;1.30;;